<?xml version="1.0" encoding="UTF-8" standalone="no" ?>
<gpx xmlns="http://www.topografix.com/GPX/1/1" xmlns:xsi="http://www.w3.org/2001/XMLSchema-instance" xsi:schemaLocation="http://www.topografix.com/GPX/1/1 http://www.topografix.com/GPX/1/1/gpx.xsd" version="1.1" creator="VisuGPX - https://www.visugpx.com">
  <metadata>
    <name>Mont du lyonnais St Martin</name>
    <desc><![CDATA[Circuits VTT autour de St martin en Haut pour vacances 2019]]></desc>
  </metadata>
  <trk>
    <name><![CDATA[9436202-SAINT MARTIN EN HAUT]]></name>
    <trkseg>
      <trkpt lat="45.65905" lon="4.56398">
        <ele>728</ele>
        <time>2019-07-29T10:04:14Z</time>
      </trkpt>
      <trkpt lat="45.6598" lon="4.56396">
        <ele>732</ele>
        <time>2019-07-29T10:04:32Z</time>
      </trkpt>
      <trkpt lat="45.66092" lon="4.56342">
        <ele>734</ele>
        <time>2019-07-29T10:04:59Z</time>
      </trkpt>
      <trkpt lat="45.66173" lon="4.5631">
        <ele>733</ele>
        <time>2019-07-29T10:05:19Z</time>
      </trkpt>
      <trkpt lat="45.66294" lon="4.56293">
        <ele>736</ele>
        <time>2019-07-29T10:05:47Z</time>
      </trkpt>
      <trkpt lat="45.66298" lon="4.56299">
        <ele>736</ele>
        <time>2019-07-29T10:05:48Z</time>
      </trkpt>
      <trkpt lat="45.66296" lon="4.56315">
        <ele>736</ele>
        <time>2019-07-29T10:05:51Z</time>
      </trkpt>
      <trkpt lat="45.66298" lon="4.56338">
        <ele>736</ele>
        <time>2019-07-29T10:05:55Z</time>
      </trkpt>
      <trkpt lat="45.66324" lon="4.56407">
        <ele>735</ele>
        <time>2019-07-29T10:06:08Z</time>
      </trkpt>
      <trkpt lat="45.66359" lon="4.5653">
        <ele>732</ele>
        <time>2019-07-29T10:06:29Z</time>
      </trkpt>
      <trkpt lat="45.66383" lon="4.5658">
        <ele>732</ele>
        <time>2019-07-29T10:06:39Z</time>
      </trkpt>
      <trkpt lat="45.66412" lon="4.56678">
        <ele>732</ele>
        <time>2019-07-29T10:06:57Z</time>
      </trkpt>
      <trkpt lat="45.6641" lon="4.56742">
        <ele>733</ele>
        <time>2019-07-29T10:07:07Z</time>
      </trkpt>
      <trkpt lat="45.66432" lon="4.56913">
        <ele>737</ele>
        <time>2019-07-29T10:07:35Z</time>
      </trkpt>
      <trkpt lat="45.66454" lon="4.56967">
        <ele>736</ele>
        <time>2019-07-29T10:07:46Z</time>
      </trkpt>
      <trkpt lat="45.66481" lon="4.56995">
        <ele>736</ele>
        <time>2019-07-29T10:07:53Z</time>
      </trkpt>
      <trkpt lat="45.66499" lon="4.57065">
        <ele>735</ele>
        <time>2019-07-29T10:08:06Z</time>
      </trkpt>
      <trkpt lat="45.66502" lon="4.57164">
        <ele>731</ele>
        <time>2019-07-29T10:08:22Z</time>
      </trkpt>
      <trkpt lat="45.66524" lon="4.57237">
        <ele>728</ele>
        <time>2019-07-29T10:08:35Z</time>
      </trkpt>
      <trkpt lat="45.66565" lon="4.57301">
        <ele>720</ele>
        <time>2019-07-29T10:08:49Z</time>
      </trkpt>
      <trkpt lat="45.66595" lon="4.57317">
        <ele>716</ele>
        <time>2019-07-29T10:08:56Z</time>
      </trkpt>
      <trkpt lat="45.66623" lon="4.57298">
        <ele>719</ele>
        <time>2019-07-29T10:09:04Z</time>
      </trkpt>
      <trkpt lat="45.66658" lon="4.57297">
        <ele>719</ele>
        <time>2019-07-29T10:09:12Z</time>
      </trkpt>
      <trkpt lat="45.66774" lon="4.57313">
        <ele>718</ele>
        <time>2019-07-29T10:09:39Z</time>
      </trkpt>
      <trkpt lat="45.66802" lon="4.57293">
        <ele>724</ele>
        <time>2019-07-29T10:09:46Z</time>
      </trkpt>
      <trkpt lat="45.66843" lon="4.57284">
        <ele>725</ele>
        <time>2019-07-29T10:09:56Z</time>
      </trkpt>
      <trkpt lat="45.6688" lon="4.57305">
        <ele>719</ele>
        <time>2019-07-29T10:10:05Z</time>
      </trkpt>
      <trkpt lat="45.669" lon="4.57309">
        <ele>717</ele>
        <time>2019-07-29T10:10:10Z</time>
      </trkpt>
      <trkpt lat="45.66914" lon="4.57289">
        <ele>719</ele>
        <time>2019-07-29T10:10:15Z</time>
      </trkpt>
      <trkpt lat="45.66915" lon="4.57248">
        <ele>724</ele>
        <time>2019-07-29T10:10:21Z</time>
      </trkpt>
      <trkpt lat="45.66941" lon="4.5718">
        <ele>720</ele>
        <time>2019-07-29T10:10:34Z</time>
      </trkpt>
      <trkpt lat="45.66955" lon="4.57161">
        <ele>717</ele>
        <time>2019-07-29T10:10:39Z</time>
      </trkpt>
      <trkpt lat="45.66976" lon="4.57168">
        <ele>711</ele>
        <time>2019-07-29T10:10:44Z</time>
      </trkpt>
      <trkpt lat="45.66969" lon="4.57234">
        <ele>711</ele>
        <time>2019-07-29T10:10:54Z</time>
      </trkpt>
      <trkpt lat="45.67004" lon="4.57284">
        <ele>699</ele>
        <time>2019-07-29T10:11:06Z</time>
      </trkpt>
      <trkpt lat="45.67013" lon="4.57354">
        <ele>691</ele>
        <time>2019-07-29T10:11:18Z</time>
      </trkpt>
      <trkpt lat="45.67006" lon="4.5738">
        <ele>688</ele>
        <time>2019-07-29T10:11:22Z</time>
      </trkpt>
      <trkpt lat="45.66953" lon="4.57449">
        <ele>683</ele>
        <time>2019-07-29T10:11:39Z</time>
      </trkpt>
      <trkpt lat="45.66919" lon="4.5747">
        <ele>680</ele>
        <time>2019-07-29T10:11:48Z</time>
      </trkpt>
      <trkpt lat="45.66917" lon="4.57479">
        <ele>678</ele>
        <time>2019-07-29T10:11:49Z</time>
      </trkpt>
      <trkpt lat="45.67016" lon="4.57536">
        <ele>660</ele>
        <time>2019-07-29T10:12:14Z</time>
      </trkpt>
      <trkpt lat="45.67053" lon="4.57525">
        <ele>664</ele>
        <time>2019-07-29T10:12:23Z</time>
      </trkpt>
      <trkpt lat="45.67069" lon="4.57571">
        <ele>661</ele>
        <time>2019-07-29T10:12:31Z</time>
      </trkpt>
      <trkpt lat="45.67041" lon="4.57641">
        <ele>655</ele>
        <time>2019-07-29T10:12:44Z</time>
      </trkpt>
      <trkpt lat="45.67004" lon="4.57673">
        <ele>644</ele>
        <time>2019-07-29T10:12:55Z</time>
      </trkpt>
      <trkpt lat="45.66995" lon="4.57686">
        <ele>643</ele>
        <time>2019-07-29T10:12:57Z</time>
      </trkpt>
      <trkpt lat="45.66959" lon="4.57857">
        <ele>645</ele>
        <time>2019-07-29T10:13:27Z</time>
      </trkpt>
      <trkpt lat="45.66958" lon="4.57914">
        <ele>649</ele>
        <time>2019-07-29T10:13:36Z</time>
      </trkpt>
      <trkpt lat="45.6695" lon="4.57989">
        <ele>649</ele>
        <time>2019-07-29T10:13:48Z</time>
      </trkpt>
      <trkpt lat="45.66974" lon="4.58158">
        <ele>658</ele>
        <time>2019-07-29T10:14:16Z</time>
      </trkpt>
      <trkpt lat="45.66991" lon="4.58203">
        <ele>661</ele>
        <time>2019-07-29T10:14:25Z</time>
      </trkpt>
      <trkpt lat="45.67013" lon="4.58252">
        <ele>661</ele>
        <time>2019-07-29T10:14:34Z</time>
      </trkpt>
      <trkpt lat="45.67045" lon="4.58294">
        <ele>656</ele>
        <time>2019-07-29T10:14:44Z</time>
      </trkpt>
      <trkpt lat="45.67059" lon="4.583">
        <ele>655</ele>
        <time>2019-07-29T10:14:48Z</time>
      </trkpt>
      <trkpt lat="45.67113" lon="4.58264">
        <ele>667</ele>
        <time>2019-07-29T10:15:02Z</time>
      </trkpt>
      <trkpt lat="45.67127" lon="4.58273">
        <ele>667</ele>
        <time>2019-07-29T10:15:05Z</time>
      </trkpt>
      <trkpt lat="45.67143" lon="4.58341">
        <ele>658</ele>
        <time>2019-07-29T10:15:17Z</time>
      </trkpt>
      <trkpt lat="45.67164" lon="4.5839">
        <ele>649</ele>
        <time>2019-07-29T10:15:26Z</time>
      </trkpt>
      <trkpt lat="45.67196" lon="4.58438">
        <ele>647</ele>
        <time>2019-07-29T10:15:37Z</time>
      </trkpt>
      <trkpt lat="45.67198" lon="4.58513">
        <ele>637</ele>
        <time>2019-07-29T10:15:50Z</time>
      </trkpt>
      <trkpt lat="45.67207" lon="4.58542">
        <ele>635</ele>
        <time>2019-07-29T10:15:55Z</time>
      </trkpt>
      <trkpt lat="45.67233" lon="4.5857">
        <ele>638</ele>
        <time>2019-07-29T10:16:02Z</time>
      </trkpt>
      <trkpt lat="45.67275" lon="4.58587">
        <ele>642</ele>
        <time>2019-07-29T10:16:12Z</time>
      </trkpt>
      <trkpt lat="45.67339" lon="4.58574">
        <ele>651</ele>
        <time>2019-07-29T10:16:28Z</time>
      </trkpt>
      <trkpt lat="45.67407" lon="4.58569">
        <ele>654</ele>
        <time>2019-07-29T10:16:43Z</time>
      </trkpt>
      <trkpt lat="45.6749" lon="4.58631">
        <ele>641</ele>
        <time>2019-07-29T10:17:05Z</time>
      </trkpt>
      <trkpt lat="45.67533" lon="4.58613">
        <ele>640</ele>
        <time>2019-07-29T10:17:16Z</time>
      </trkpt>
      <trkpt lat="45.67564" lon="4.58555">
        <ele>647</ele>
        <time>2019-07-29T10:17:28Z</time>
      </trkpt>
      <trkpt lat="45.67617" lon="4.58426">
        <ele>663</ele>
        <time>2019-07-29T10:17:52Z</time>
      </trkpt>
      <trkpt lat="45.6763" lon="4.58366">
        <ele>667</ele>
        <time>2019-07-29T10:18:02Z</time>
      </trkpt>
      <trkpt lat="45.67631" lon="4.58324">
        <ele>672</ele>
        <time>2019-07-29T10:18:09Z</time>
      </trkpt>
      <trkpt lat="45.67635" lon="4.58286">
        <ele>677</ele>
        <time>2019-07-29T10:18:16Z</time>
      </trkpt>
      <trkpt lat="45.67646" lon="4.58279">
        <ele>676</ele>
        <time>2019-07-29T10:18:18Z</time>
      </trkpt>
      <trkpt lat="45.67672" lon="4.58299">
        <ele>669</ele>
        <time>2019-07-29T10:18:25Z</time>
      </trkpt>
      <trkpt lat="45.67714" lon="4.58316">
        <ele>667</ele>
        <time>2019-07-29T10:18:35Z</time>
      </trkpt>
      <trkpt lat="45.67756" lon="4.58305">
        <ele>670</ele>
        <time>2019-07-29T10:18:45Z</time>
      </trkpt>
      <trkpt lat="45.67786" lon="4.58236">
        <ele>683</ele>
        <time>2019-07-29T10:18:59Z</time>
      </trkpt>
      <trkpt lat="45.6782" lon="4.58205">
        <ele>685</ele>
        <time>2019-07-29T10:19:08Z</time>
      </trkpt>
      <trkpt lat="45.67854" lon="4.58165">
        <ele>692</ele>
        <time>2019-07-29T10:19:18Z</time>
      </trkpt>
      <trkpt lat="45.67927" lon="4.58152">
        <ele>694</ele>
        <time>2019-07-29T10:19:36Z</time>
      </trkpt>
      <trkpt lat="45.67975" lon="4.58132">
        <ele>703</ele>
        <time>2019-07-29T10:19:47Z</time>
      </trkpt>
      <trkpt lat="45.68006" lon="4.58151">
        <ele>704</ele>
        <time>2019-07-29T10:19:55Z</time>
      </trkpt>
      <trkpt lat="45.68029" lon="4.58197">
        <ele>703</ele>
        <time>2019-07-29T10:20:04Z</time>
      </trkpt>
      <trkpt lat="45.68042" lon="4.58192">
        <ele>707</ele>
        <time>2019-07-29T10:20:07Z</time>
      </trkpt>
      <trkpt lat="45.68052" lon="4.58168">
        <ele>712</ele>
        <time>2019-07-29T10:20:12Z</time>
      </trkpt>
      <trkpt lat="45.68045" lon="4.581">
        <ele>724</ele>
        <time>2019-07-29T10:20:23Z</time>
      </trkpt>
      <trkpt lat="45.68021" lon="4.58055">
        <ele>730</ele>
        <time>2019-07-29T10:20:32Z</time>
      </trkpt>
      <trkpt lat="45.68017" lon="4.58031">
        <ele>736</ele>
        <time>2019-07-29T10:20:36Z</time>
      </trkpt>
      <trkpt lat="45.68061" lon="4.58062">
        <ele>738</ele>
        <time>2019-07-29T10:20:48Z</time>
      </trkpt>
      <trkpt lat="45.68109" lon="4.58118">
        <ele>737</ele>
        <time>2019-07-29T10:21:02Z</time>
      </trkpt>
      <trkpt lat="45.68215" lon="4.58288">
        <ele>736</ele>
        <time>2019-07-29T10:21:40Z</time>
      </trkpt>
      <trkpt lat="45.6823" lon="4.5833">
        <ele>735</ele>
        <time>2019-07-29T10:21:47Z</time>
      </trkpt>
      <trkpt lat="45.68351" lon="4.58362">
        <ele>754</ele>
        <time>2019-07-29T10:22:16Z</time>
      </trkpt>
      <trkpt lat="45.6838" lon="4.58339">
        <ele>755</ele>
        <time>2019-07-29T10:22:24Z</time>
      </trkpt>
      <trkpt lat="45.68397" lon="4.58311">
        <ele>758</ele>
        <time>2019-07-29T10:22:30Z</time>
      </trkpt>
      <trkpt lat="45.68434" lon="4.58297">
        <ele>762</ele>
        <time>2019-07-29T10:22:39Z</time>
      </trkpt>
      <trkpt lat="45.68497" lon="4.5823">
        <ele>770</ele>
        <time>2019-07-29T10:22:57Z</time>
      </trkpt>
      <trkpt lat="45.68515" lon="4.58159">
        <ele>770</ele>
        <time>2019-07-29T10:23:09Z</time>
      </trkpt>
      <trkpt lat="45.68545" lon="4.58212">
        <ele>766</ele>
        <time>2019-07-29T10:23:21Z</time>
      </trkpt>
      <trkpt lat="45.68564" lon="4.58212">
        <ele>764</ele>
        <time>2019-07-29T10:23:25Z</time>
      </trkpt>
      <trkpt lat="45.68605" lon="4.5819">
        <ele>759</ele>
        <time>2019-07-29T10:23:35Z</time>
      </trkpt>
      <trkpt lat="45.6863" lon="4.58185">
        <ele>754</ele>
        <time>2019-07-29T10:23:41Z</time>
      </trkpt>
      <trkpt lat="45.68665" lon="4.58144">
        <ele>747</ele>
        <time>2019-07-29T10:23:52Z</time>
      </trkpt>
      <trkpt lat="45.68674" lon="4.58144">
        <ele>745</ele>
        <time>2019-07-29T10:23:54Z</time>
      </trkpt>
      <trkpt lat="45.68679" lon="4.58156">
        <ele>744</ele>
        <time>2019-07-29T10:23:56Z</time>
      </trkpt>
      <trkpt lat="45.68682" lon="4.58236">
        <ele>745</ele>
        <time>2019-07-29T10:24:09Z</time>
      </trkpt>
      <trkpt lat="45.68659" lon="4.58321">
        <ele>742</ele>
        <time>2019-07-29T10:24:24Z</time>
      </trkpt>
      <trkpt lat="45.68656" lon="4.58354">
        <ele>737</ele>
        <time>2019-07-29T10:24:29Z</time>
      </trkpt>
      <trkpt lat="45.68725" lon="4.58228">
        <ele>733</ele>
        <time>2019-07-29T10:24:56Z</time>
      </trkpt>
      <trkpt lat="45.68745" lon="4.58165">
        <ele>726</ele>
        <time>2019-07-29T10:25:07Z</time>
      </trkpt>
      <trkpt lat="45.68748" lon="4.5814">
        <ele>725</ele>
        <time>2019-07-29T10:25:11Z</time>
      </trkpt>
      <trkpt lat="45.68739" lon="4.58086">
        <ele>726</ele>
        <time>2019-07-29T10:25:20Z</time>
      </trkpt>
      <trkpt lat="45.68763" lon="4.58037">
        <ele>726</ele>
        <time>2019-07-29T10:25:30Z</time>
      </trkpt>
      <trkpt lat="45.68775" lon="4.57996">
        <ele>729</ele>
        <time>2019-07-29T10:25:37Z</time>
      </trkpt>
      <trkpt lat="45.68792" lon="4.57987">
        <ele>726</ele>
        <time>2019-07-29T10:25:41Z</time>
      </trkpt>
      <trkpt lat="45.68831" lon="4.57912">
        <ele>722</ele>
        <time>2019-07-29T10:25:57Z</time>
      </trkpt>
      <trkpt lat="45.68844" lon="4.57907">
        <ele>723</ele>
        <time>2019-07-29T10:26:00Z</time>
      </trkpt>
      <trkpt lat="45.68861" lon="4.57923">
        <ele>724</ele>
        <time>2019-07-29T10:26:04Z</time>
      </trkpt>
      <trkpt lat="45.68876" lon="4.57984">
        <ele>726</ele>
        <time>2019-07-29T10:26:15Z</time>
      </trkpt>
      <trkpt lat="45.68885" lon="4.5806">
        <ele>726</ele>
        <time>2019-07-29T10:26:28Z</time>
      </trkpt>
      <trkpt lat="45.68896" lon="4.58103">
        <ele>727</ele>
        <time>2019-07-29T10:26:35Z</time>
      </trkpt>
      <trkpt lat="45.68921" lon="4.58123">
        <ele>731</ele>
        <time>2019-07-29T10:26:42Z</time>
      </trkpt>
      <trkpt lat="45.68948" lon="4.58091">
        <ele>737</ele>
        <time>2019-07-29T10:26:50Z</time>
      </trkpt>
      <trkpt lat="45.6897" lon="4.58039">
        <ele>742</ele>
        <time>2019-07-29T10:27:00Z</time>
      </trkpt>
      <trkpt lat="45.68996" lon="4.57999">
        <ele>749</ele>
        <time>2019-07-29T10:27:09Z</time>
      </trkpt>
      <trkpt lat="45.69083" lon="4.57983">
        <ele>764</ele>
        <time>2019-07-29T10:27:29Z</time>
      </trkpt>
      <trkpt lat="45.69106" lon="4.57964">
        <ele>765</ele>
        <time>2019-07-29T10:27:35Z</time>
      </trkpt>
      <trkpt lat="45.69114" lon="4.57898">
        <ele>768</ele>
        <time>2019-07-29T10:27:46Z</time>
      </trkpt>
      <trkpt lat="45.69123" lon="4.57874">
        <ele>769</ele>
        <time>2019-07-29T10:27:51Z</time>
      </trkpt>
      <trkpt lat="45.69148" lon="4.57857">
        <ele>772</ele>
        <time>2019-07-29T10:27:57Z</time>
      </trkpt>
      <trkpt lat="45.69194" lon="4.57856">
        <ele>775</ele>
        <time>2019-07-29T10:28:08Z</time>
      </trkpt>
      <trkpt lat="45.69227" lon="4.57848">
        <ele>777</ele>
        <time>2019-07-29T10:28:16Z</time>
      </trkpt>
      <trkpt lat="45.69335" lon="4.57728">
        <ele>787</ele>
        <time>2019-07-29T10:28:48Z</time>
      </trkpt>
      <trkpt lat="45.69389" lon="4.57676">
        <ele>785</ele>
        <time>2019-07-29T10:29:03Z</time>
      </trkpt>
      <trkpt lat="45.69435" lon="4.57602">
        <ele>785</ele>
        <time>2019-07-29T10:29:19Z</time>
      </trkpt>
      <trkpt lat="45.69463" lon="4.57593">
        <ele>783</ele>
        <time>2019-07-29T10:29:26Z</time>
      </trkpt>
      <trkpt lat="45.69491" lon="4.57567">
        <ele>783</ele>
        <time>2019-07-29T10:29:34Z</time>
      </trkpt>
      <trkpt lat="45.69498" lon="4.5754">
        <ele>785</ele>
        <time>2019-07-29T10:29:38Z</time>
      </trkpt>
      <trkpt lat="45.69486" lon="4.57536">
        <ele>785</ele>
        <time>2019-07-29T10:29:41Z</time>
      </trkpt>
      <trkpt lat="45.69492" lon="4.57456">
        <ele>794</ele>
        <time>2019-07-29T10:29:54Z</time>
      </trkpt>
      <trkpt lat="45.69507" lon="4.57378">
        <ele>805</ele>
        <time>2019-07-29T10:30:07Z</time>
      </trkpt>
      <trkpt lat="45.69516" lon="4.57367">
        <ele>807</ele>
        <time>2019-07-29T10:30:10Z</time>
      </trkpt>
      <trkpt lat="45.69528" lon="4.57324">
        <ele>814</ele>
        <time>2019-07-29T10:30:18Z</time>
      </trkpt>
      <trkpt lat="45.69559" lon="4.57303">
        <ele>822</ele>
        <time>2019-07-29T10:30:26Z</time>
      </trkpt>
      <trkpt lat="45.69577" lon="4.57273">
        <ele>830</ele>
        <time>2019-07-29T10:30:32Z</time>
      </trkpt>
      <trkpt lat="45.6961" lon="4.57163">
        <ele>849</ele>
        <time>2019-07-29T10:30:52Z</time>
      </trkpt>
      <trkpt lat="45.69632" lon="4.57152">
        <ele>852</ele>
        <time>2019-07-29T10:30:57Z</time>
      </trkpt>
      <trkpt lat="45.69667" lon="4.57096">
        <ele>863</ele>
        <time>2019-07-29T10:31:09Z</time>
      </trkpt>
      <trkpt lat="45.69663" lon="4.57061">
        <ele>868</ele>
        <time>2019-07-29T10:31:15Z</time>
      </trkpt>
      <trkpt lat="45.69662" lon="4.57021">
        <ele>873</ele>
        <time>2019-07-29T10:31:22Z</time>
      </trkpt>
      <trkpt lat="45.69669" lon="4.5696">
        <ele>882</ele>
        <time>2019-07-29T10:31:32Z</time>
      </trkpt>
      <trkpt lat="45.69729" lon="4.56929">
        <ele>888</ele>
        <time>2019-07-29T10:31:47Z</time>
      </trkpt>
      <trkpt lat="45.69779" lon="4.56842">
        <ele>896</ele>
        <time>2019-07-29T10:32:05Z</time>
      </trkpt>
      <trkpt lat="45.69841" lon="4.56774">
        <ele>895</ele>
        <time>2019-07-29T10:32:23Z</time>
      </trkpt>
      <trkpt lat="45.69882" lon="4.56745">
        <ele>891</ele>
        <time>2019-07-29T10:32:34Z</time>
      </trkpt>
      <trkpt lat="45.69919" lon="4.56669">
        <ele>892</ele>
        <time>2019-07-29T10:32:49Z</time>
      </trkpt>
      <trkpt lat="45.69962" lon="4.566">
        <ele>886</ele>
        <time>2019-07-29T10:33:04Z</time>
      </trkpt>
      <trkpt lat="45.69998" lon="4.56555">
        <ele>884</ele>
        <time>2019-07-29T10:33:15Z</time>
      </trkpt>
      <trkpt lat="45.70034" lon="4.56477">
        <ele>883</ele>
        <time>2019-07-29T10:33:31Z</time>
      </trkpt>
      <trkpt lat="45.70066" lon="4.56451">
        <ele>881</ele>
        <time>2019-07-29T10:33:39Z</time>
      </trkpt>
      <trkpt lat="45.70102" lon="4.56447">
        <ele>880</ele>
        <time>2019-07-29T10:33:48Z</time>
      </trkpt>
      <trkpt lat="45.70146" lon="4.56454">
        <ele>879</ele>
        <time>2019-07-29T10:33:58Z</time>
      </trkpt>
      <trkpt lat="45.70158" lon="4.56407">
        <ele>877</ele>
        <time>2019-07-29T10:34:06Z</time>
      </trkpt>
      <trkpt lat="45.70205" lon="4.56365">
        <ele>871</ele>
        <time>2019-07-29T10:34:19Z</time>
      </trkpt>
      <trkpt lat="45.7026" lon="4.56358">
        <ele>870</ele>
        <time>2019-07-29T10:34:32Z</time>
      </trkpt>
      <trkpt lat="45.70333" lon="4.56327">
        <ele>869</ele>
        <time>2019-07-29T10:34:50Z</time>
      </trkpt>
      <trkpt lat="45.70396" lon="4.56269">
        <ele>866</ele>
        <time>2019-07-29T10:35:07Z</time>
      </trkpt>
      <trkpt lat="45.70422" lon="4.56257">
        <ele>868</ele>
        <time>2019-07-29T10:35:14Z</time>
      </trkpt>
      <trkpt lat="45.70464" lon="4.56223">
        <ele>868</ele>
        <time>2019-07-29T10:35:25Z</time>
      </trkpt>
      <trkpt lat="45.7048" lon="4.56198">
        <ele>870</ele>
        <time>2019-07-29T10:35:30Z</time>
      </trkpt>
      <trkpt lat="45.70512" lon="4.56133">
        <ele>874</ele>
        <time>2019-07-29T10:35:43Z</time>
      </trkpt>
      <trkpt lat="45.70563" lon="4.56067">
        <ele>882</ele>
        <time>2019-07-29T10:35:59Z</time>
      </trkpt>
      <trkpt lat="45.70629" lon="4.55968">
        <ele>887</ele>
        <time>2019-07-29T10:36:22Z</time>
      </trkpt>
      <trkpt lat="45.70699" lon="4.55838">
        <ele>896</ele>
        <time>2019-07-29T10:36:49Z</time>
      </trkpt>
      <trkpt lat="45.70779" lon="4.55681">
        <ele>892</ele>
        <time>2019-07-29T10:37:20Z</time>
      </trkpt>
      <trkpt lat="45.70813" lon="4.55639">
        <ele>888</ele>
        <time>2019-07-29T10:37:31Z</time>
      </trkpt>
      <trkpt lat="45.70894" lon="4.55603">
        <ele>885</ele>
        <time>2019-07-29T10:37:51Z</time>
      </trkpt>
      <trkpt lat="45.7093" lon="4.55571">
        <ele>881</ele>
        <time>2019-07-29T10:38:00Z</time>
      </trkpt>
      <trkpt lat="45.70975" lon="4.55546">
        <ele>876</ele>
        <time>2019-07-29T10:38:12Z</time>
      </trkpt>
      <trkpt lat="45.70991" lon="4.55529">
        <ele>873</ele>
        <time>2019-07-29T10:38:16Z</time>
      </trkpt>
      <trkpt lat="45.71075" lon="4.55455">
        <ele>862</ele>
        <time>2019-07-29T10:38:39Z</time>
      </trkpt>
      <trkpt lat="45.7108" lon="4.5543">
        <ele>861</ele>
        <time>2019-07-29T10:38:44Z</time>
      </trkpt>
      <trkpt lat="45.71077" lon="4.55382">
        <ele>856</ele>
        <time>2019-07-29T10:38:52Z</time>
      </trkpt>
      <trkpt lat="45.71067" lon="4.55337">
        <ele>852</ele>
        <time>2019-07-29T10:38:59Z</time>
      </trkpt>
      <trkpt lat="45.71035" lon="4.55247">
        <ele>844</ele>
        <time>2019-07-29T10:39:16Z</time>
      </trkpt>
      <trkpt lat="45.70985" lon="4.55151">
        <ele>841</ele>
        <time>2019-07-29T10:39:35Z</time>
      </trkpt>
      <trkpt lat="45.70941" lon="4.55082">
        <ele>842</ele>
        <time>2019-07-29T10:39:50Z</time>
      </trkpt>
      <trkpt lat="45.70916" lon="4.5506">
        <ele>843</ele>
        <time>2019-07-29T10:39:57Z</time>
      </trkpt>
      <trkpt lat="45.70869" lon="4.55001">
        <ele>839</ele>
        <time>2019-07-29T10:40:12Z</time>
      </trkpt>
      <trkpt lat="45.70848" lon="4.54962">
        <ele>839</ele>
        <time>2019-07-29T10:40:20Z</time>
      </trkpt>
      <trkpt lat="45.70791" lon="4.54903">
        <ele>831</ele>
        <time>2019-07-29T10:40:36Z</time>
      </trkpt>
      <trkpt lat="45.70745" lon="4.54802">
        <ele>820</ele>
        <time>2019-07-29T10:40:56Z</time>
      </trkpt>
      <trkpt lat="45.70701" lon="4.54747">
        <ele>814</ele>
        <time>2019-07-29T10:41:10Z</time>
      </trkpt>
      <trkpt lat="45.70679" lon="4.54741">
        <ele>812</ele>
        <time>2019-07-29T10:41:15Z</time>
      </trkpt>
      <trkpt lat="45.70636" lon="4.5471">
        <ele>808</ele>
        <time>2019-07-29T10:41:26Z</time>
      </trkpt>
      <trkpt lat="45.70563" lon="4.54628">
        <ele>801</ele>
        <time>2019-07-29T10:41:48Z</time>
      </trkpt>
      <trkpt lat="45.70527" lon="4.5455">
        <ele>796</ele>
        <time>2019-07-29T10:42:03Z</time>
      </trkpt>
      <trkpt lat="45.70409" lon="4.54371">
        <ele>783</ele>
        <time>2019-07-29T10:42:43Z</time>
      </trkpt>
      <trkpt lat="45.70386" lon="4.54381">
        <ele>780</ele>
        <time>2019-07-29T10:42:49Z</time>
      </trkpt>
      <trkpt lat="45.70457" lon="4.54197">
        <ele>783</ele>
        <time>2019-07-29T10:43:23Z</time>
      </trkpt>
      <trkpt lat="45.70464" lon="4.54083">
        <ele>774</ele>
        <time>2019-07-29T10:43:42Z</time>
      </trkpt>
      <trkpt lat="45.70457" lon="4.5402">
        <ele>771</ele>
        <time>2019-07-29T10:43:52Z</time>
      </trkpt>
      <trkpt lat="45.70459" lon="4.53864">
        <ele>768</ele>
        <time>2019-07-29T10:44:18Z</time>
      </trkpt>
      <trkpt lat="45.70453" lon="4.53783">
        <ele>762</ele>
        <time>2019-07-29T10:44:31Z</time>
      </trkpt>
      <trkpt lat="45.70449" lon="4.53518">
        <ele>741</ele>
        <time>2019-07-29T10:45:14Z</time>
      </trkpt>
      <trkpt lat="45.70458" lon="4.53484">
        <ele>739</ele>
        <time>2019-07-29T10:45:20Z</time>
      </trkpt>
      <trkpt lat="45.7043" lon="4.53419">
        <ele>732</ele>
        <time>2019-07-29T10:45:32Z</time>
      </trkpt>
      <trkpt lat="45.70407" lon="4.53315">
        <ele>719</ele>
        <time>2019-07-29T10:45:50Z</time>
      </trkpt>
      <trkpt lat="45.70388" lon="4.53248">
        <ele>707</ele>
        <time>2019-07-29T10:46:02Z</time>
      </trkpt>
      <trkpt lat="45.70393" lon="4.53202">
        <ele>701</ele>
        <time>2019-07-29T10:46:10Z</time>
      </trkpt>
      <trkpt lat="45.70411" lon="4.53141">
        <ele>694</ele>
        <time>2019-07-29T10:46:20Z</time>
      </trkpt>
      <trkpt lat="45.70447" lon="4.53037">
        <ele>676</ele>
        <time>2019-07-29T10:46:39Z</time>
      </trkpt>
      <trkpt lat="45.70558" lon="4.5288">
        <ele>651</ele>
        <time>2019-07-29T10:47:16Z</time>
      </trkpt>
      <trkpt lat="45.70602" lon="4.52808">
        <ele>628</ele>
        <time>2019-07-29T10:47:31Z</time>
      </trkpt>
      <trkpt lat="45.70638" lon="4.52763">
        <ele>614</ele>
        <time>2019-07-29T10:47:43Z</time>
      </trkpt>
      <trkpt lat="45.70637" lon="4.52671">
        <ele>594</ele>
        <time>2019-07-29T10:47:58Z</time>
      </trkpt>
      <trkpt lat="45.70629" lon="4.5264">
        <ele>587</ele>
        <time>2019-07-29T10:48:03Z</time>
      </trkpt>
      <trkpt lat="45.70612" lon="4.52627">
        <ele>583</ele>
        <time>2019-07-29T10:48:07Z</time>
      </trkpt>
      <trkpt lat="45.706" lon="4.52683">
        <ele>594</ele>
        <time>2019-07-29T10:48:17Z</time>
      </trkpt>
      <trkpt lat="45.70567" lon="4.52724">
        <ele>602</ele>
        <time>2019-07-29T10:48:27Z</time>
      </trkpt>
      <trkpt lat="45.70495" lon="4.52772">
        <ele>610</ele>
        <time>2019-07-29T10:48:46Z</time>
      </trkpt>
      <trkpt lat="45.70462" lon="4.52785">
        <ele>608</ele>
        <time>2019-07-29T10:48:54Z</time>
      </trkpt>
      <trkpt lat="45.70412" lon="4.52831">
        <ele>611</ele>
        <time>2019-07-29T10:49:08Z</time>
      </trkpt>
      <trkpt lat="45.70373" lon="4.52878">
        <ele>614</ele>
        <time>2019-07-29T10:49:20Z</time>
      </trkpt>
      <trkpt lat="45.70348" lon="4.52942">
        <ele>622</ele>
        <time>2019-07-29T10:49:32Z</time>
      </trkpt>
      <trkpt lat="45.70318" lon="4.53008">
        <ele>634</ele>
        <time>2019-07-29T10:49:44Z</time>
      </trkpt>
      <trkpt lat="45.70312" lon="4.53007">
        <ele>636</ele>
        <time>2019-07-29T10:49:46Z</time>
      </trkpt>
      <trkpt lat="45.70292" lon="4.52859">
        <ele>612</ele>
        <time>2019-07-29T10:50:10Z</time>
      </trkpt>
      <trkpt lat="45.7029" lon="4.52795">
        <ele>596</ele>
        <time>2019-07-29T10:50:21Z</time>
      </trkpt>
      <trkpt lat="45.70296" lon="4.52762">
        <ele>586</ele>
        <time>2019-07-29T10:50:26Z</time>
      </trkpt>
      <trkpt lat="45.70289" lon="4.52737">
        <ele>581</ele>
        <time>2019-07-29T10:50:31Z</time>
      </trkpt>
      <trkpt lat="45.70265" lon="4.52717">
        <ele>582</ele>
        <time>2019-07-29T10:50:37Z</time>
      </trkpt>
      <trkpt lat="45.7021" lon="4.52707">
        <ele>588</ele>
        <time>2019-07-29T10:50:50Z</time>
      </trkpt>
      <trkpt lat="45.70184" lon="4.52724">
        <ele>591</ele>
        <time>2019-07-29T10:50:57Z</time>
      </trkpt>
      <trkpt lat="45.70147" lon="4.52735">
        <ele>596</ele>
        <time>2019-07-29T10:51:06Z</time>
      </trkpt>
      <trkpt lat="45.70127" lon="4.52751">
        <ele>599</ele>
        <time>2019-07-29T10:51:11Z</time>
      </trkpt>
      <trkpt lat="45.70114" lon="4.52777">
        <ele>604</ele>
        <time>2019-07-29T10:51:16Z</time>
      </trkpt>
      <trkpt lat="45.70115" lon="4.52743">
        <ele>602</ele>
        <time>2019-07-29T10:51:22Z</time>
      </trkpt>
      <trkpt lat="45.70132" lon="4.52675">
        <ele>605</ele>
        <time>2019-07-29T10:51:34Z</time>
      </trkpt>
      <trkpt lat="45.7014" lon="4.52632">
        <ele>613</ele>
        <time>2019-07-29T10:51:41Z</time>
      </trkpt>
      <trkpt lat="45.70161" lon="4.52597">
        <ele>618</ele>
        <time>2019-07-29T10:51:48Z</time>
      </trkpt>
      <trkpt lat="45.70242" lon="4.52488">
        <ele>629</ele>
        <time>2019-07-29T10:52:14Z</time>
      </trkpt>
      <trkpt lat="45.70252" lon="4.52447">
        <ele>632</ele>
        <time>2019-07-29T10:52:21Z</time>
      </trkpt>
      <trkpt lat="45.7025" lon="4.524">
        <ele>636</ele>
        <time>2019-07-29T10:52:29Z</time>
      </trkpt>
      <trkpt lat="45.70226" lon="4.52342">
        <ele>642</ele>
        <time>2019-07-29T10:52:40Z</time>
      </trkpt>
      <trkpt lat="45.70165" lon="4.52233">
        <ele>650</ele>
        <time>2019-07-29T10:53:03Z</time>
      </trkpt>
      <trkpt lat="45.70078" lon="4.52174">
        <ele>669</ele>
        <time>2019-07-29T10:53:25Z</time>
      </trkpt>
      <trkpt lat="45.70066" lon="4.52143">
        <ele>674</ele>
        <time>2019-07-29T10:53:31Z</time>
      </trkpt>
      <trkpt lat="45.70047" lon="4.52104">
        <ele>683</ele>
        <time>2019-07-29T10:53:39Z</time>
      </trkpt>
      <trkpt lat="45.7005" lon="4.52089">
        <ele>682</ele>
        <time>2019-07-29T10:53:41Z</time>
      </trkpt>
      <trkpt lat="45.70082" lon="4.5207">
        <ele>669</ele>
        <time>2019-07-29T10:53:50Z</time>
      </trkpt>
      <trkpt lat="45.70083" lon="4.51993">
        <ele>679</ele>
        <time>2019-07-29T10:54:02Z</time>
      </trkpt>
      <trkpt lat="45.70094" lon="4.5185">
        <ele>684</ele>
        <time>2019-07-29T10:54:26Z</time>
      </trkpt>
      <trkpt lat="45.70091" lon="4.5182">
        <ele>687</ele>
        <time>2019-07-29T10:54:31Z</time>
      </trkpt>
      <trkpt lat="45.70084" lon="4.51787">
        <ele>691</ele>
        <time>2019-07-29T10:54:36Z</time>
      </trkpt>
      <trkpt lat="45.70092" lon="4.51768">
        <ele>692</ele>
        <time>2019-07-29T10:54:40Z</time>
      </trkpt>
      <trkpt lat="45.70157" lon="4.51762">
        <ele>687</ele>
        <time>2019-07-29T10:54:55Z</time>
      </trkpt>
      <trkpt lat="45.70161" lon="4.51747">
        <ele>690</ele>
        <time>2019-07-29T10:54:58Z</time>
      </trkpt>
      <trkpt lat="45.70162" lon="4.51719">
        <ele>692</ele>
        <time>2019-07-29T10:55:02Z</time>
      </trkpt>
      <trkpt lat="45.70155" lon="4.51668">
        <ele>697</ele>
        <time>2019-07-29T10:55:11Z</time>
      </trkpt>
      <trkpt lat="45.70154" lon="4.51574">
        <ele>697</ele>
        <time>2019-07-29T10:55:26Z</time>
      </trkpt>
      <trkpt lat="45.70142" lon="4.51498">
        <ele>693</ele>
        <time>2019-07-29T10:55:39Z</time>
      </trkpt>
      <trkpt lat="45.70082" lon="4.51407">
        <ele>698</ele>
        <time>2019-07-29T10:55:59Z</time>
      </trkpt>
      <trkpt lat="45.70074" lon="4.51387">
        <ele>697</ele>
        <time>2019-07-29T10:56:03Z</time>
      </trkpt>
      <trkpt lat="45.70064" lon="4.51382">
        <ele>699</ele>
        <time>2019-07-29T10:56:05Z</time>
      </trkpt>
      <trkpt lat="45.70043" lon="4.5136">
        <ele>701</ele>
        <time>2019-07-29T10:56:11Z</time>
      </trkpt>
      <trkpt lat="45.70031" lon="4.5133">
        <ele>700</ele>
        <time>2019-07-29T10:56:17Z</time>
      </trkpt>
      <trkpt lat="45.70032" lon="4.51274">
        <ele>696</ele>
        <time>2019-07-29T10:56:26Z</time>
      </trkpt>
      <trkpt lat="45.70011" lon="4.51193">
        <ele>696</ele>
        <time>2019-07-29T10:56:40Z</time>
      </trkpt>
      <trkpt lat="45.70002" lon="4.51121">
        <ele>697</ele>
        <time>2019-07-29T10:56:52Z</time>
      </trkpt>
      <trkpt lat="45.69968" lon="4.51057">
        <ele>704</ele>
        <time>2019-07-29T10:57:05Z</time>
      </trkpt>
      <trkpt lat="45.69977" lon="4.51028">
        <ele>705</ele>
        <time>2019-07-29T10:57:10Z</time>
      </trkpt>
      <trkpt lat="45.70011" lon="4.51007">
        <ele>706</ele>
        <time>2019-07-29T10:57:19Z</time>
      </trkpt>
      <trkpt lat="45.70105" lon="4.51035">
        <ele>709</ele>
        <time>2019-07-29T10:57:42Z</time>
      </trkpt>
      <trkpt lat="45.70139" lon="4.51032">
        <ele>710</ele>
        <time>2019-07-29T10:57:50Z</time>
      </trkpt>
      <trkpt lat="45.70142" lon="4.51007">
        <ele>714</ele>
        <time>2019-07-29T10:57:54Z</time>
      </trkpt>
      <trkpt lat="45.7012" lon="4.50983">
        <ele>717</ele>
        <time>2019-07-29T10:58:00Z</time>
      </trkpt>
      <trkpt lat="45.70116" lon="4.50963">
        <ele>718</ele>
        <time>2019-07-29T10:58:03Z</time>
      </trkpt>
      <trkpt lat="45.70097" lon="4.50953">
        <ele>719</ele>
        <time>2019-07-29T10:58:08Z</time>
      </trkpt>
      <trkpt lat="45.70087" lon="4.50885">
        <ele>724</ele>
        <time>2019-07-29T10:58:20Z</time>
      </trkpt>
      <trkpt lat="45.70069" lon="4.5086">
        <ele>726</ele>
        <time>2019-07-29T10:58:25Z</time>
      </trkpt>
      <trkpt lat="45.70036" lon="4.50843">
        <ele>727</ele>
        <time>2019-07-29T10:58:34Z</time>
      </trkpt>
      <trkpt lat="45.69963" lon="4.50828">
        <ele>731</ele>
        <time>2019-07-29T10:58:51Z</time>
      </trkpt>
      <trkpt lat="45.6987" lon="4.50793">
        <ele>737</ele>
        <time>2019-07-29T10:59:13Z</time>
      </trkpt>
      <trkpt lat="45.69799" lon="4.5076">
        <ele>745</ele>
        <time>2019-07-29T10:59:31Z</time>
      </trkpt>
      <trkpt lat="45.69749" lon="4.50846">
        <ele>755</ele>
        <time>2019-07-29T10:59:49Z</time>
      </trkpt>
      <trkpt lat="45.69739" lon="4.50883">
        <ele>761</ele>
        <time>2019-07-29T10:59:55Z</time>
      </trkpt>
      <trkpt lat="45.69733" lon="4.51001">
        <ele>772</ele>
        <time>2019-07-29T11:00:15Z</time>
      </trkpt>
      <trkpt lat="45.69653" lon="4.51219">
        <ele>815</ele>
        <time>2019-07-29T11:00:55Z</time>
      </trkpt>
      <trkpt lat="45.6965" lon="4.51283">
        <ele>818</ele>
        <time>2019-07-29T11:01:05Z</time>
      </trkpt>
      <trkpt lat="45.69599" lon="4.51421">
        <ele>826</ele>
        <time>2019-07-29T11:01:31Z</time>
      </trkpt>
      <trkpt lat="45.69574" lon="4.51469">
        <ele>828</ele>
        <time>2019-07-29T11:01:41Z</time>
      </trkpt>
      <trkpt lat="45.69493" lon="4.51583">
        <ele>835</ele>
        <time>2019-07-29T11:02:07Z</time>
      </trkpt>
      <trkpt lat="45.69441" lon="4.51645">
        <ele>838</ele>
        <time>2019-07-29T11:02:23Z</time>
      </trkpt>
      <trkpt lat="45.69377" lon="4.51681">
        <ele>841</ele>
        <time>2019-07-29T11:02:39Z</time>
      </trkpt>
      <trkpt lat="45.69303" lon="4.5171">
        <ele>838</ele>
        <time>2019-07-29T11:02:57Z</time>
      </trkpt>
      <trkpt lat="45.69261" lon="4.51756">
        <ele>831</ele>
        <time>2019-07-29T11:03:09Z</time>
      </trkpt>
      <trkpt lat="45.69219" lon="4.5188">
        <ele>829</ele>
        <time>2019-07-29T11:03:32Z</time>
      </trkpt>
      <trkpt lat="45.69191" lon="4.51971">
        <ele>827</ele>
        <time>2019-07-29T11:03:48Z</time>
      </trkpt>
      <trkpt lat="45.6916" lon="4.52004">
        <ele>824</ele>
        <time>2019-07-29T11:03:57Z</time>
      </trkpt>
      <trkpt lat="45.69066" lon="4.52047">
        <ele>816</ele>
        <time>2019-07-29T11:04:20Z</time>
      </trkpt>
      <trkpt lat="45.69033" lon="4.52087">
        <ele>814</ele>
        <time>2019-07-29T11:04:30Z</time>
      </trkpt>
      <trkpt lat="45.68885" lon="4.52249">
        <ele>803</ele>
        <time>2019-07-29T11:05:14Z</time>
      </trkpt>
      <trkpt lat="45.68845" lon="4.52337">
        <ele>803</ele>
        <time>2019-07-29T11:05:31Z</time>
      </trkpt>
      <trkpt lat="45.68771" lon="4.52408">
        <ele>802</ele>
        <time>2019-07-29T11:05:52Z</time>
      </trkpt>
      <trkpt lat="45.68712" lon="4.52461">
        <ele>802</ele>
        <time>2019-07-29T11:06:08Z</time>
      </trkpt>
      <trkpt lat="45.68574" lon="4.52503">
        <ele>805</ele>
        <time>2019-07-29T11:06:41Z</time>
      </trkpt>
      <trkpt lat="45.6847" lon="4.52558">
        <ele>807</ele>
        <time>2019-07-29T11:07:07Z</time>
      </trkpt>
      <trkpt lat="45.68442" lon="4.52538">
        <ele>806</ele>
        <time>2019-07-29T11:07:14Z</time>
      </trkpt>
      <trkpt lat="45.68356" lon="4.52316">
        <ele>816</ele>
        <time>2019-07-29T11:07:55Z</time>
      </trkpt>
      <trkpt lat="45.68372" lon="4.52139">
        <ele>828</ele>
        <time>2019-07-29T11:08:25Z</time>
      </trkpt>
      <trkpt lat="45.68358" lon="4.52054">
        <ele>834</ele>
        <time>2019-07-29T11:08:39Z</time>
      </trkpt>
      <trkpt lat="45.68358" lon="4.51975">
        <ele>842</ele>
        <time>2019-07-29T11:08:52Z</time>
      </trkpt>
      <trkpt lat="45.68344" lon="4.51727">
        <ele>852</ele>
        <time>2019-07-29T11:09:32Z</time>
      </trkpt>
      <trkpt lat="45.68299" lon="4.51619">
        <ele>857</ele>
        <time>2019-07-29T11:09:53Z</time>
      </trkpt>
      <trkpt lat="45.68274" lon="4.5154">
        <ele>858</ele>
        <time>2019-07-29T11:10:07Z</time>
      </trkpt>
      <trkpt lat="45.68269" lon="4.51434">
        <ele>859</ele>
        <time>2019-07-29T11:10:24Z</time>
      </trkpt>
      <trkpt lat="45.68245" lon="4.51319">
        <ele>864</ele>
        <time>2019-07-29T11:10:44Z</time>
      </trkpt>
      <trkpt lat="45.68231" lon="4.51278">
        <ele>866</ele>
        <time>2019-07-29T11:10:51Z</time>
      </trkpt>
      <trkpt lat="45.68201" lon="4.51227">
        <ele>868</ele>
        <time>2019-07-29T11:11:02Z</time>
      </trkpt>
      <trkpt lat="45.68134" lon="4.51135">
        <ele>872</ele>
        <time>2019-07-29T11:11:24Z</time>
      </trkpt>
      <trkpt lat="45.68119" lon="4.51108">
        <ele>874</ele>
        <time>2019-07-29T11:11:29Z</time>
      </trkpt>
      <trkpt lat="45.68035" lon="4.51043">
        <ele>879</ele>
        <time>2019-07-29T11:11:52Z</time>
      </trkpt>
      <trkpt lat="45.68009" lon="4.50994">
        <ele>884</ele>
        <time>2019-07-29T11:12:02Z</time>
      </trkpt>
      <trkpt lat="45.67937" lon="4.50693">
        <ele>896</ele>
        <time>2019-07-29T11:12:54Z</time>
      </trkpt>
      <trkpt lat="45.67921" lon="4.50649">
        <ele>899</ele>
        <time>2019-07-29T11:13:02Z</time>
      </trkpt>
      <trkpt lat="45.6789" lon="4.50625">
        <ele>901</ele>
        <time>2019-07-29T11:13:10Z</time>
      </trkpt>
      <trkpt lat="45.67799" lon="4.50585">
        <ele>902</ele>
        <time>2019-07-29T11:13:32Z</time>
      </trkpt>
      <trkpt lat="45.67731" lon="4.5054">
        <ele>900</ele>
        <time>2019-07-29T11:13:50Z</time>
      </trkpt>
      <trkpt lat="45.67716" lon="4.50517">
        <ele>899</ele>
        <time>2019-07-29T11:13:55Z</time>
      </trkpt>
      <trkpt lat="45.67804" lon="4.50438">
        <ele>909</ele>
        <time>2019-07-29T11:14:19Z</time>
      </trkpt>
      <trkpt lat="45.6784" lon="4.5044">
        <ele>912</ele>
        <time>2019-07-29T11:14:28Z</time>
      </trkpt>
      <trkpt lat="45.6789" lon="4.50349">
        <ele>915</ele>
        <time>2019-07-29T11:14:46Z</time>
      </trkpt>
      <trkpt lat="45.67958" lon="4.50288">
        <ele>923</ele>
        <time>2019-07-29T11:15:05Z</time>
      </trkpt>
      <trkpt lat="45.6798" lon="4.50217">
        <ele>926</ele>
        <time>2019-07-29T11:15:18Z</time>
      </trkpt>
      <trkpt lat="45.68015" lon="4.50117">
        <ele>922</ele>
        <time>2019-07-29T11:15:36Z</time>
      </trkpt>
      <trkpt lat="45.68014" lon="4.50073">
        <ele>919</ele>
        <time>2019-07-29T11:15:43Z</time>
      </trkpt>
      <trkpt lat="45.68034" lon="4.50041">
        <ele>915</ele>
        <time>2019-07-29T11:15:50Z</time>
      </trkpt>
      <trkpt lat="45.68046" lon="4.49982">
        <ele>908</ele>
        <time>2019-07-29T11:16:00Z</time>
      </trkpt>
      <trkpt lat="45.68081" lon="4.49942">
        <ele>900</ele>
        <time>2019-07-29T11:16:11Z</time>
      </trkpt>
      <trkpt lat="45.6814" lon="4.49961">
        <ele>887</ele>
        <time>2019-07-29T11:16:25Z</time>
      </trkpt>
      <trkpt lat="45.68092" lon="4.49904">
        <ele>893</ele>
        <time>2019-07-29T11:16:39Z</time>
      </trkpt>
      <trkpt lat="45.68075" lon="4.49836">
        <ele>888</ele>
        <time>2019-07-29T11:16:51Z</time>
      </trkpt>
      <trkpt lat="45.68008" lon="4.49746">
        <ele>885</ele>
        <time>2019-07-29T11:17:13Z</time>
      </trkpt>
      <trkpt lat="45.6794" lon="4.49736">
        <ele>877</ele>
        <time>2019-07-29T11:17:29Z</time>
      </trkpt>
      <trkpt lat="45.67928" lon="4.49715">
        <ele>872</ele>
        <time>2019-07-29T11:17:33Z</time>
      </trkpt>
      <trkpt lat="45.67925" lon="4.49649">
        <ele>859</ele>
        <time>2019-07-29T11:17:44Z</time>
      </trkpt>
      <trkpt lat="45.67876" lon="4.49642">
        <ele>851</ele>
        <time>2019-07-29T11:17:55Z</time>
      </trkpt>
      <trkpt lat="45.67864" lon="4.49699">
        <ele>859</ele>
        <time>2019-07-29T11:18:05Z</time>
      </trkpt>
      <trkpt lat="45.67843" lon="4.49743">
        <ele>863</ele>
        <time>2019-07-29T11:18:14Z</time>
      </trkpt>
      <trkpt lat="45.67746" lon="4.49892">
        <ele>868</ele>
        <time>2019-07-29T11:18:47Z</time>
      </trkpt>
      <trkpt lat="45.67691" lon="4.49948">
        <ele>863</ele>
        <time>2019-07-29T11:19:03Z</time>
      </trkpt>
      <trkpt lat="45.67681" lon="4.50076">
        <ele>869</ele>
        <time>2019-07-29T11:19:24Z</time>
      </trkpt>
      <trkpt lat="45.67614" lon="4.50117">
        <ele>869</ele>
        <time>2019-07-29T11:19:41Z</time>
      </trkpt>
      <trkpt lat="45.67557" lon="4.50104">
        <ele>872</ele>
        <time>2019-07-29T11:19:54Z</time>
      </trkpt>
      <trkpt lat="45.67568" lon="4.50185">
        <ele>876</ele>
        <time>2019-07-29T11:20:08Z</time>
      </trkpt>
      <trkpt lat="45.67584" lon="4.50256">
        <ele>880</ele>
        <time>2019-07-29T11:20:20Z</time>
      </trkpt>
      <trkpt lat="45.67625" lon="4.50373">
        <ele>890</ele>
        <time>2019-07-29T11:20:41Z</time>
      </trkpt>
      <trkpt lat="45.67713" lon="4.50519">
        <ele>899</ele>
        <time>2019-07-29T11:21:13Z</time>
      </trkpt>
      <trkpt lat="45.67672" lon="4.50553">
        <ele>892</ele>
        <time>2019-07-29T11:21:24Z</time>
      </trkpt>
      <trkpt lat="45.67718" lon="4.50679">
        <ele>881</ele>
        <time>2019-07-29T11:21:47Z</time>
      </trkpt>
      <trkpt lat="45.67751" lon="4.50735">
        <ele>876</ele>
        <time>2019-07-29T11:21:59Z</time>
      </trkpt>
      <trkpt lat="45.67761" lon="4.50773">
        <ele>872</ele>
        <time>2019-07-29T11:22:06Z</time>
      </trkpt>
      <trkpt lat="45.67717" lon="4.50742">
        <ele>869</ele>
        <time>2019-07-29T11:22:17Z</time>
      </trkpt>
      <trkpt lat="45.67662" lon="4.5071">
        <ele>867</ele>
        <time>2019-07-29T11:22:31Z</time>
      </trkpt>
      <trkpt lat="45.67635" lon="4.50704">
        <ele>867</ele>
        <time>2019-07-29T11:22:37Z</time>
      </trkpt>
      <trkpt lat="45.67597" lon="4.50702">
        <ele>865</ele>
        <time>2019-07-29T11:22:46Z</time>
      </trkpt>
      <trkpt lat="45.67559" lon="4.5074">
        <ele>860</ele>
        <time>2019-07-29T11:22:57Z</time>
      </trkpt>
      <trkpt lat="45.67466" lon="4.50978">
        <ele>852</ele>
        <time>2019-07-29T11:23:41Z</time>
      </trkpt>
      <trkpt lat="45.67434" lon="4.50994">
        <ele>854</ele>
        <time>2019-07-29T11:23:49Z</time>
      </trkpt>
      <trkpt lat="45.67387" lon="4.5097">
        <ele>858</ele>
        <time>2019-07-29T11:24:01Z</time>
      </trkpt>
      <trkpt lat="45.67277" lon="4.50953">
        <ele>865</ele>
        <time>2019-07-29T11:24:27Z</time>
      </trkpt>
      <trkpt lat="45.67246" lon="4.50946">
        <ele>867</ele>
        <time>2019-07-29T11:24:34Z</time>
      </trkpt>
      <trkpt lat="45.67185" lon="4.50864">
        <ele>862</ele>
        <time>2019-07-29T11:24:54Z</time>
      </trkpt>
      <trkpt lat="45.67127" lon="4.50807">
        <ele>858</ele>
        <time>2019-07-29T11:25:10Z</time>
      </trkpt>
      <trkpt lat="45.67083" lon="4.50798">
        <ele>856</ele>
        <time>2019-07-29T11:25:21Z</time>
      </trkpt>
      <trkpt lat="45.67017" lon="4.50808">
        <ele>854</ele>
        <time>2019-07-29T11:25:36Z</time>
      </trkpt>
      <trkpt lat="45.66955" lon="4.50761">
        <ele>857</ele>
        <time>2019-07-29T11:25:52Z</time>
      </trkpt>
      <trkpt lat="45.66922" lon="4.50709">
        <ele>853</ele>
        <time>2019-07-29T11:26:04Z</time>
      </trkpt>
      <trkpt lat="45.66903" lon="4.50707">
        <ele>850</ele>
        <time>2019-07-29T11:26:08Z</time>
      </trkpt>
      <trkpt lat="45.66917" lon="4.50839">
        <ele>852</ele>
        <time>2019-07-29T11:26:30Z</time>
      </trkpt>
      <trkpt lat="45.66859" lon="4.509">
        <ele>854</ele>
        <time>2019-07-29T11:26:47Z</time>
      </trkpt>
      <trkpt lat="45.66756" lon="4.51118">
        <ele>844</ele>
        <time>2019-07-29T11:27:30Z</time>
      </trkpt>
      <trkpt lat="45.66739" lon="4.51202">
        <ele>839</ele>
        <time>2019-07-29T11:27:44Z</time>
      </trkpt>
      <trkpt lat="45.66676" lon="4.51259">
        <ele>824</ele>
        <time>2019-07-29T11:28:02Z</time>
      </trkpt>
      <trkpt lat="45.66655" lon="4.5124">
        <ele>821</ele>
        <time>2019-07-29T11:28:07Z</time>
      </trkpt>
      <trkpt lat="45.66644" lon="4.51279">
        <ele>815</ele>
        <time>2019-07-29T11:28:14Z</time>
      </trkpt>
      <trkpt lat="45.66643" lon="4.5133">
        <ele>810</ele>
        <time>2019-07-29T11:28:23Z</time>
      </trkpt>
      <trkpt lat="45.66706" lon="4.51487">
        <ele>798</ele>
        <time>2019-07-29T11:28:52Z</time>
      </trkpt>
      <trkpt lat="45.66749" lon="4.5151">
        <ele>797</ele>
        <time>2019-07-29T11:29:03Z</time>
      </trkpt>
      <trkpt lat="45.6661" lon="4.51589">
        <ele>783</ele>
        <time>2019-07-29T11:29:38Z</time>
      </trkpt>
      <trkpt lat="45.66533" lon="4.51642">
        <ele>779</ele>
        <time>2019-07-29T11:29:58Z</time>
      </trkpt>
      <trkpt lat="45.66604" lon="4.51689">
        <ele>779</ele>
        <time>2019-07-29T11:30:16Z</time>
      </trkpt>
      <trkpt lat="45.66667" lon="4.5171">
        <ele>772</ele>
        <time>2019-07-29T11:30:31Z</time>
      </trkpt>
      <trkpt lat="45.6669" lon="4.51739">
        <ele>768</ele>
        <time>2019-07-29T11:30:38Z</time>
      </trkpt>
      <trkpt lat="45.6673" lon="4.51821">
        <ele>760</ele>
        <time>2019-07-29T11:30:55Z</time>
      </trkpt>
      <trkpt lat="45.66756" lon="4.51891">
        <ele>756</ele>
        <time>2019-07-29T11:31:08Z</time>
      </trkpt>
      <trkpt lat="45.66769" lon="4.51959">
        <ele>753</ele>
        <time>2019-07-29T11:31:19Z</time>
      </trkpt>
      <trkpt lat="45.66776" lon="4.52022">
        <ele>753</ele>
        <time>2019-07-29T11:31:29Z</time>
      </trkpt>
      <trkpt lat="45.66818" lon="4.52123">
        <ele>748</ele>
        <time>2019-07-29T11:31:49Z</time>
      </trkpt>
      <trkpt lat="45.66815" lon="4.52163">
        <ele>749</ele>
        <time>2019-07-29T11:31:55Z</time>
      </trkpt>
      <trkpt lat="45.66856" lon="4.52251">
        <ele>746</ele>
        <time>2019-07-29T11:32:12Z</time>
      </trkpt>
      <trkpt lat="45.66919" lon="4.52311">
        <ele>738</ele>
        <time>2019-07-29T11:32:30Z</time>
      </trkpt>
      <trkpt lat="45.66956" lon="4.52317">
        <ele>735</ele>
        <time>2019-07-29T11:32:39Z</time>
      </trkpt>
      <trkpt lat="45.67017" lon="4.5236">
        <ele>731</ele>
        <time>2019-07-29T11:32:55Z</time>
      </trkpt>
      <trkpt lat="45.67074" lon="4.5234">
        <ele>729</ele>
        <time>2019-07-29T11:33:08Z</time>
      </trkpt>
      <trkpt lat="45.67122" lon="4.52401">
        <ele>728</ele>
        <time>2019-07-29T11:33:23Z</time>
      </trkpt>
      <trkpt lat="45.67162" lon="4.52436">
        <ele>729</ele>
        <time>2019-07-29T11:33:34Z</time>
      </trkpt>
      <trkpt lat="45.67216" lon="4.52436">
        <ele>727</ele>
        <time>2019-07-29T11:33:47Z</time>
      </trkpt>
      <trkpt lat="45.67229" lon="4.52465">
        <ele>727</ele>
        <time>2019-07-29T11:33:53Z</time>
      </trkpt>
      <trkpt lat="45.67233" lon="4.52501">
        <ele>728</ele>
        <time>2019-07-29T11:33:59Z</time>
      </trkpt>
      <trkpt lat="45.67255" lon="4.52522">
        <ele>730</ele>
        <time>2019-07-29T11:34:05Z</time>
      </trkpt>
      <trkpt lat="45.67198" lon="4.52587">
        <ele>733</ele>
        <time>2019-07-29T11:34:22Z</time>
      </trkpt>
      <trkpt lat="45.67056" lon="4.52502">
        <ele>739</ele>
        <time>2019-07-29T11:34:58Z</time>
      </trkpt>
      <trkpt lat="45.67036" lon="4.52537">
        <ele>743</ele>
        <time>2019-07-29T11:35:05Z</time>
      </trkpt>
      <trkpt lat="45.66794" lon="4.5257">
        <ele>757</ele>
        <time>2019-07-29T11:36:02Z</time>
      </trkpt>
      <trkpt lat="45.66682" lon="4.52613">
        <ele>762</ele>
        <time>2019-07-29T11:36:29Z</time>
      </trkpt>
      <trkpt lat="45.6661" lon="4.52645">
        <ele>765</ele>
        <time>2019-07-29T11:36:47Z</time>
      </trkpt>
      <trkpt lat="45.66503" lon="4.52757">
        <ele>766</ele>
        <time>2019-07-29T11:37:17Z</time>
      </trkpt>
      <trkpt lat="45.66447" lon="4.52787">
        <ele>770</ele>
        <time>2019-07-29T11:37:31Z</time>
      </trkpt>
      <trkpt lat="45.66398" lon="4.52759">
        <ele>775</ele>
        <time>2019-07-29T11:37:44Z</time>
      </trkpt>
      <trkpt lat="45.66329" lon="4.52747">
        <ele>774</ele>
        <time>2019-07-29T11:38:00Z</time>
      </trkpt>
      <trkpt lat="45.66159" lon="4.52862">
        <ele>763</ele>
        <time>2019-07-29T11:38:44Z</time>
      </trkpt>
      <trkpt lat="45.66128" lon="4.52879">
        <ele>759</ele>
        <time>2019-07-29T11:38:52Z</time>
      </trkpt>
      <trkpt lat="45.6609" lon="4.52885">
        <ele>754</ele>
        <time>2019-07-29T11:39:01Z</time>
      </trkpt>
      <trkpt lat="45.66019" lon="4.52894">
        <ele>744</ele>
        <time>2019-07-29T11:39:17Z</time>
      </trkpt>
      <trkpt lat="45.65951" lon="4.52864">
        <ele>734</ele>
        <time>2019-07-29T11:39:34Z</time>
      </trkpt>
      <trkpt lat="45.65909" lon="4.52871">
        <ele>729</ele>
        <time>2019-07-29T11:39:44Z</time>
      </trkpt>
      <trkpt lat="45.65838" lon="4.52861">
        <ele>721</ele>
        <time>2019-07-29T11:40:00Z</time>
      </trkpt>
      <trkpt lat="45.65721" lon="4.52863">
        <ele>705</ele>
        <time>2019-07-29T11:40:28Z</time>
      </trkpt>
      <trkpt lat="45.65594" lon="4.52857">
        <ele>687</ele>
        <time>2019-07-29T11:40:57Z</time>
      </trkpt>
      <trkpt lat="45.65529" lon="4.52842">
        <ele>682</ele>
        <time>2019-07-29T11:41:13Z</time>
      </trkpt>
      <trkpt lat="45.65513" lon="4.52865">
        <ele>680</ele>
        <time>2019-07-29T11:41:18Z</time>
      </trkpt>
      <trkpt lat="45.65455" lon="4.52899">
        <ele>680</ele>
        <time>2019-07-29T11:41:33Z</time>
      </trkpt>
      <trkpt lat="45.65417" lon="4.52946">
        <ele>680</ele>
        <time>2019-07-29T11:41:44Z</time>
      </trkpt>
      <trkpt lat="45.65394" lon="4.52994">
        <ele>681</ele>
        <time>2019-07-29T11:41:54Z</time>
      </trkpt>
      <trkpt lat="45.65352" lon="4.52981">
        <ele>684</ele>
        <time>2019-07-29T11:42:04Z</time>
      </trkpt>
      <trkpt lat="45.65317" lon="4.52966">
        <ele>685</ele>
        <time>2019-07-29T11:42:12Z</time>
      </trkpt>
      <trkpt lat="45.6535" lon="4.52909">
        <ele>686</ele>
        <time>2019-07-29T11:42:25Z</time>
      </trkpt>
      <trkpt lat="45.65427" lon="4.52805">
        <ele>692</ele>
        <time>2019-07-29T11:42:49Z</time>
      </trkpt>
      <trkpt lat="45.65442" lon="4.52757">
        <ele>694</ele>
        <time>2019-07-29T11:42:58Z</time>
      </trkpt>
      <trkpt lat="45.65439" lon="4.52697">
        <ele>699</ele>
        <time>2019-07-29T11:43:08Z</time>
      </trkpt>
      <trkpt lat="45.65407" lon="4.52625">
        <ele>709</ele>
        <time>2019-07-29T11:43:22Z</time>
      </trkpt>
      <trkpt lat="45.65404" lon="4.52471">
        <ele>718</ele>
        <time>2019-07-29T11:43:47Z</time>
      </trkpt>
      <trkpt lat="45.65446" lon="4.52339">
        <ele>731</ele>
        <time>2019-07-29T11:44:10Z</time>
      </trkpt>
      <trkpt lat="45.65447" lon="4.52268">
        <ele>741</ele>
        <time>2019-07-29T11:44:22Z</time>
      </trkpt>
      <trkpt lat="45.65421" lon="4.52133">
        <ele>743</ele>
        <time>2019-07-29T11:44:45Z</time>
      </trkpt>
      <trkpt lat="45.65352" lon="4.52248">
        <ele>761</ele>
        <time>2019-07-29T11:45:10Z</time>
      </trkpt>
      <trkpt lat="45.65312" lon="4.52277">
        <ele>763</ele>
        <time>2019-07-29T11:45:20Z</time>
      </trkpt>
      <trkpt lat="45.65275" lon="4.52277">
        <ele>763</ele>
        <time>2019-07-29T11:45:29Z</time>
      </trkpt>
      <trkpt lat="45.65084" lon="4.52199">
        <ele>751</ele>
        <time>2019-07-29T11:46:15Z</time>
      </trkpt>
      <trkpt lat="45.6502" lon="4.52132">
        <ele>741</ele>
        <time>2019-07-29T11:46:34Z</time>
      </trkpt>
      <trkpt lat="45.64867" lon="4.5204">
        <ele>714</ele>
        <time>2019-07-29T11:47:12Z</time>
      </trkpt>
      <trkpt lat="45.64754" lon="4.52001">
        <ele>700</ele>
        <time>2019-07-29T11:47:40Z</time>
      </trkpt>
      <trkpt lat="45.64666" lon="4.51991">
        <ele>695</ele>
        <time>2019-07-29T11:48:00Z</time>
      </trkpt>
      <trkpt lat="45.64615" lon="4.52009">
        <ele>696</ele>
        <time>2019-07-29T11:48:12Z</time>
      </trkpt>
      <trkpt lat="45.64619" lon="4.52095">
        <ele>691</ele>
        <time>2019-07-29T11:48:27Z</time>
      </trkpt>
      <trkpt lat="45.64598" lon="4.52121">
        <ele>691</ele>
        <time>2019-07-29T11:48:33Z</time>
      </trkpt>
      <trkpt lat="45.64518" lon="4.52148">
        <ele>690</ele>
        <time>2019-07-29T11:48:52Z</time>
      </trkpt>
      <trkpt lat="45.64488" lon="4.52148">
        <ele>688</ele>
        <time>2019-07-29T11:48:59Z</time>
      </trkpt>
      <trkpt lat="45.64466" lon="4.52124">
        <ele>687</ele>
        <time>2019-07-29T11:49:06Z</time>
      </trkpt>
      <trkpt lat="45.64464" lon="4.5204">
        <ele>685</ele>
        <time>2019-07-29T11:49:19Z</time>
      </trkpt>
      <trkpt lat="45.64452" lon="4.52022">
        <ele>683</ele>
        <time>2019-07-29T11:49:23Z</time>
      </trkpt>
      <trkpt lat="45.64339" lon="4.5208">
        <ele>674</ele>
        <time>2019-07-29T11:49:51Z</time>
      </trkpt>
      <trkpt lat="45.64267" lon="4.5206">
        <ele>668</ele>
        <time>2019-07-29T11:50:09Z</time>
      </trkpt>
      <trkpt lat="45.64187" lon="4.5223">
        <ele>666</ele>
        <time>2019-07-29T11:50:42Z</time>
      </trkpt>
      <trkpt lat="45.6415" lon="4.52229">
        <ele>664</ele>
        <time>2019-07-29T11:50:51Z</time>
      </trkpt>
      <trkpt lat="45.64123" lon="4.52243">
        <ele>662</ele>
        <time>2019-07-29T11:50:57Z</time>
      </trkpt>
      <trkpt lat="45.64112" lon="4.52293">
        <ele>659</ele>
        <time>2019-07-29T11:51:06Z</time>
      </trkpt>
      <trkpt lat="45.64132" lon="4.52357">
        <ele>657</ele>
        <time>2019-07-29T11:51:17Z</time>
      </trkpt>
      <trkpt lat="45.64155" lon="4.5248">
        <ele>654</ele>
        <time>2019-07-29T11:51:38Z</time>
      </trkpt>
      <trkpt lat="45.64142" lon="4.52496">
        <ele>652</ele>
        <time>2019-07-29T11:51:42Z</time>
      </trkpt>
      <trkpt lat="45.64113" lon="4.52639">
        <ele>647</ele>
        <time>2019-07-29T11:52:07Z</time>
      </trkpt>
      <trkpt lat="45.64101" lon="4.52792">
        <ele>634</ele>
        <time>2019-07-29T11:52:32Z</time>
      </trkpt>
      <trkpt lat="45.64131" lon="4.52882">
        <ele>625</ele>
        <time>2019-07-29T11:52:48Z</time>
      </trkpt>
      <trkpt lat="45.64139" lon="4.52961">
        <ele>618</ele>
        <time>2019-07-29T11:53:01Z</time>
      </trkpt>
      <trkpt lat="45.64159" lon="4.53028">
        <ele>613</ele>
        <time>2019-07-29T11:53:13Z</time>
      </trkpt>
      <trkpt lat="45.64172" lon="4.53152">
        <ele>603</ele>
        <time>2019-07-29T11:53:33Z</time>
      </trkpt>
      <trkpt lat="45.64177" lon="4.53246">
        <ele>597</ele>
        <time>2019-07-29T11:53:49Z</time>
      </trkpt>
      <trkpt lat="45.64186" lon="4.53259">
        <ele>597</ele>
        <time>2019-07-29T11:53:52Z</time>
      </trkpt>
      <trkpt lat="45.64168" lon="4.53364">
        <ele>599</ele>
        <time>2019-07-29T11:54:09Z</time>
      </trkpt>
      <trkpt lat="45.64174" lon="4.53418">
        <ele>602</ele>
        <time>2019-07-29T11:54:18Z</time>
      </trkpt>
      <trkpt lat="45.64168" lon="4.53513">
        <ele>612</ele>
        <time>2019-07-29T11:54:34Z</time>
      </trkpt>
      <trkpt lat="45.64223" lon="4.53525">
        <ele>613</ele>
        <time>2019-07-29T11:54:47Z</time>
      </trkpt>
      <trkpt lat="45.64284" lon="4.53502">
        <ele>614</ele>
        <time>2019-07-29T11:55:02Z</time>
      </trkpt>
      <trkpt lat="45.64333" lon="4.53521">
        <ele>620</ele>
        <time>2019-07-29T11:55:13Z</time>
      </trkpt>
      <trkpt lat="45.64373" lon="4.53546">
        <ele>621</ele>
        <time>2019-07-29T11:55:24Z</time>
      </trkpt>
      <trkpt lat="45.64391" lon="4.53592">
        <ele>627</ele>
        <time>2019-07-29T11:55:32Z</time>
      </trkpt>
      <trkpt lat="45.64413" lon="4.53627">
        <ele>634</ele>
        <time>2019-07-29T11:55:40Z</time>
      </trkpt>
      <trkpt lat="45.64433" lon="4.53647">
        <ele>637</ele>
        <time>2019-07-29T11:55:46Z</time>
      </trkpt>
      <trkpt lat="45.64546" lon="4.53702">
        <ele>636</ele>
        <time>2019-07-29T11:56:14Z</time>
      </trkpt>
      <trkpt lat="45.64582" lon="4.53735">
        <ele>636</ele>
        <time>2019-07-29T11:56:24Z</time>
      </trkpt>
      <trkpt lat="45.64636" lon="4.53819">
        <ele>641</ele>
        <time>2019-07-29T11:56:42Z</time>
      </trkpt>
      <trkpt lat="45.64652" lon="4.53875">
        <ele>644</ele>
        <time>2019-07-29T11:56:52Z</time>
      </trkpt>
      <trkpt lat="45.64682" lon="4.54068">
        <ele>657</ele>
        <time>2019-07-29T11:57:24Z</time>
      </trkpt>
      <trkpt lat="45.64701" lon="4.5412">
        <ele>662</ele>
        <time>2019-07-29T11:57:34Z</time>
      </trkpt>
      <trkpt lat="45.64723" lon="4.54218">
        <ele>675</ele>
        <time>2019-07-29T11:57:51Z</time>
      </trkpt>
      <trkpt lat="45.64768" lon="4.54285">
        <ele>674</ele>
        <time>2019-07-29T11:58:06Z</time>
      </trkpt>
      <trkpt lat="45.6485" lon="4.54513">
        <ele>680</ele>
        <time>2019-07-29T11:58:48Z</time>
      </trkpt>
      <trkpt lat="45.64885" lon="4.54671">
        <ele>688</ele>
        <time>2019-07-29T11:59:15Z</time>
      </trkpt>
      <trkpt lat="45.64879" lon="4.54721">
        <ele>692</ele>
        <time>2019-07-29T11:59:23Z</time>
      </trkpt>
      <trkpt lat="45.64887" lon="4.54768">
        <ele>695</ele>
        <time>2019-07-29T11:59:31Z</time>
      </trkpt>
      <trkpt lat="45.64905" lon="4.54791">
        <ele>696</ele>
        <time>2019-07-29T11:59:37Z</time>
      </trkpt>
      <trkpt lat="45.6492" lon="4.54823">
        <ele>698</ele>
        <time>2019-07-29T11:59:43Z</time>
      </trkpt>
      <trkpt lat="45.64932" lon="4.54898">
        <ele>705</ele>
        <time>2019-07-29T11:59:55Z</time>
      </trkpt>
      <trkpt lat="45.64933" lon="4.5493">
        <ele>709</ele>
        <time>2019-07-29T12:00:01Z</time>
      </trkpt>
      <trkpt lat="45.64919" lon="4.55005">
        <ele>717</ele>
        <time>2019-07-29T12:00:13Z</time>
      </trkpt>
      <trkpt lat="45.64921" lon="4.55051">
        <ele>722</ele>
        <time>2019-07-29T12:00:21Z</time>
      </trkpt>
      <trkpt lat="45.64948" lon="4.55074">
        <ele>725</ele>
        <time>2019-07-29T12:00:28Z</time>
      </trkpt>
      <trkpt lat="45.64976" lon="4.55152">
        <ele>731</ele>
        <time>2019-07-29T12:00:43Z</time>
      </trkpt>
      <trkpt lat="45.64978" lon="4.55178">
        <ele>734</ele>
        <time>2019-07-29T12:00:47Z</time>
      </trkpt>
      <trkpt lat="45.65049" lon="4.55107">
        <ele>726</ele>
        <time>2019-07-29T12:01:07Z</time>
      </trkpt>
      <trkpt lat="45.65168" lon="4.55029">
        <ele>718</ele>
        <time>2019-07-29T12:01:38Z</time>
      </trkpt>
      <trkpt lat="45.65251" lon="4.54931">
        <ele>709</ele>
        <time>2019-07-29T12:02:03Z</time>
      </trkpt>
      <trkpt lat="45.65321" lon="4.54875">
        <ele>701</ele>
        <time>2019-07-29T12:02:21Z</time>
      </trkpt>
      <trkpt lat="45.65361" lon="4.54863">
        <ele>695</ele>
        <time>2019-07-29T12:02:31Z</time>
      </trkpt>
      <trkpt lat="45.65395" lon="4.54845">
        <ele>689</ele>
        <time>2019-07-29T12:02:39Z</time>
      </trkpt>
      <trkpt lat="45.65451" lon="4.54799">
        <ele>680</ele>
        <time>2019-07-29T12:02:55Z</time>
      </trkpt>
      <trkpt lat="45.6548" lon="4.548">
        <ele>676</ele>
        <time>2019-07-29T12:03:01Z</time>
      </trkpt>
      <trkpt lat="45.65518" lon="4.54782">
        <ele>671</ele>
        <time>2019-07-29T12:03:11Z</time>
      </trkpt>
      <trkpt lat="45.6553" lon="4.54769">
        <ele>669</ele>
        <time>2019-07-29T12:03:14Z</time>
      </trkpt>
      <trkpt lat="45.65529" lon="4.54792">
        <ele>669</ele>
        <time>2019-07-29T12:03:18Z</time>
      </trkpt>
      <trkpt lat="45.65518" lon="4.54829">
        <ele>671</ele>
        <time>2019-07-29T12:03:24Z</time>
      </trkpt>
      <trkpt lat="45.65517" lon="4.54845">
        <ele>672</ele>
        <time>2019-07-29T12:03:27Z</time>
      </trkpt>
      <trkpt lat="45.65533" lon="4.54876">
        <ele>671</ele>
        <time>2019-07-29T12:03:33Z</time>
      </trkpt>
      <trkpt lat="45.65553" lon="4.54944">
        <ele>671</ele>
        <time>2019-07-29T12:03:45Z</time>
      </trkpt>
      <trkpt lat="45.65557" lon="4.55039">
        <ele>674</ele>
        <time>2019-07-29T12:04:01Z</time>
      </trkpt>
      <trkpt lat="45.65567" lon="4.55106">
        <ele>674</ele>
        <time>2019-07-29T12:04:12Z</time>
      </trkpt>
      <trkpt lat="45.65581" lon="4.55159">
        <ele>673</ele>
        <time>2019-07-29T12:04:21Z</time>
      </trkpt>
      <trkpt lat="45.65595" lon="4.55177">
        <ele>673</ele>
        <time>2019-07-29T12:04:26Z</time>
      </trkpt>
      <trkpt lat="45.65606" lon="4.55261">
        <ele>678</ele>
        <time>2019-07-29T12:04:40Z</time>
      </trkpt>
      <trkpt lat="45.65622" lon="4.55321">
        <ele>681</ele>
        <time>2019-07-29T12:04:50Z</time>
      </trkpt>
      <trkpt lat="45.65659" lon="4.55384">
        <ele>682</ele>
        <time>2019-07-29T12:05:04Z</time>
      </trkpt>
      <trkpt lat="45.65685" lon="4.55449">
        <ele>686</ele>
        <time>2019-07-29T12:05:16Z</time>
      </trkpt>
      <trkpt lat="45.65706" lon="4.55489">
        <ele>687</ele>
        <time>2019-07-29T12:05:24Z</time>
      </trkpt>
      <trkpt lat="45.65723" lon="4.55505">
        <ele>687</ele>
        <time>2019-07-29T12:05:29Z</time>
      </trkpt>
      <trkpt lat="45.65774" lon="4.55484">
        <ele>686</ele>
        <time>2019-07-29T12:05:41Z</time>
      </trkpt>
      <trkpt lat="45.65786" lon="4.5553">
        <ele>690</ele>
        <time>2019-07-29T12:05:49Z</time>
      </trkpt>
      <trkpt lat="45.65783" lon="4.55635">
        <ele>694</ele>
        <time>2019-07-29T12:06:06Z</time>
      </trkpt>
      <trkpt lat="45.65785" lon="4.5591">
        <ele>702</ele>
        <time>2019-07-29T12:06:51Z</time>
      </trkpt>
      <trkpt lat="45.65796" lon="4.56132">
        <ele>713</ele>
        <time>2019-07-29T12:07:28Z</time>
      </trkpt>
      <trkpt lat="45.65832" lon="4.56327">
        <ele>723</ele>
        <time>2019-07-29T12:08:01Z</time>
      </trkpt>
      <trkpt lat="45.65878" lon="4.5639">
        <ele>726</ele>
        <time>2019-07-29T12:08:15Z</time>
      </trkpt>
    </trkseg>
  </trk>
</gpx>